Time;durP1;ratioP1;P1;durP2;ratioP2;P2;SDS_P1;SDS_P2;PMS_P1;PMS_P2;Temp;Humidity;BMP_temperature;BMP_pressure;BME280_temperature;BME280_humidity;BME280_pressure;Samples;Min_cycle;Max_cycle;Signal;HPM_P1;HPM_P2
2022/06/01 00:00:43;;;;;;;;;;;;;;;18.81;87.00;99670.69;5034537;28;827;-58
2022/06/01 00:03:10;;;;;;;;;;;;;;;18.57;87.03;99664.84;5034593;28;807;-58
2022/06/01 00:05:38;;;;;;;;;;;;;;;18.55;87.96;99650.53;5033943;28;1910;-58
2022/06/01 00:08:06;;;;;;;;;;;;;;;18.67;87.90;99652.44;5034369;28;858;-58
2022/06/01 00:10:32;;;;;;;;;;;;;;;18.74;87.69;99645.75;5034092;28;882;-59
2022/06/01 00:12:59;;;;;;;;;;;;;;;18.71;87.67;99638.28;5016430;28;786;-59
2022/06/01 00:15:27;;;;;;;;;;;;;;;18.71;87.66;99636.28;5034158;28;807;-59
2022/06/01 00:17:57;;;;;;;;;;;;;;;18.71;87.80;99633.47;5033983;28;858;-58
2022/06/01 00:20:24;;;;;;;;;;;;;;;18.72;87.64;99635.03;5033951;28;926;-59
2022/06/01 00:22:50;;;;;;;;;;;;;;;18.74;87.77;99637.38;5034046;28;886;-59
2022/06/01 00:25:17;;;;;;;;;;;;;;;18.68;87.55;99633.63;5033910;28;814;-59
2022/06/01 00:27:44;;;;;;;;;;;;;;;18.63;87.97;99629.41;5034133;28;1874;-59
2022/06/01 00:30:13;;;;;;;;;;;;;;;18.63;87.70;99632.22;5033759;28;1901;-58
2022/06/01 00:32:40;;;;;;;;;;;;;;;18.69;87.93;99629.56;5033741;28;865;-59
2022/06/01 00:35:07;;;;;;;;;;;;;;;18.90;87.46;99625.91;5033730;28;791;-58
2022/06/01 00:37:34;;;;;;;;;;;;;;;19.12;86.51;99613.81;5033703;28;858;-58
2022/06/01 00:40:02;;;;;;;;;;;;;;;19.21;85.96;99615.84;5033518;28;894;-58
2022/06/01 00:42:30;;;;;;;;;;;;;;;19.26;85.41;99615.19;5033618;28;881;-58
2022/06/01 00:44:57;;;;;;;;;;;;;;;19.00;85.05;99612.69;5033486;28;822;-58
2022/06/01 00:47:25;;;;;;;;;;;;;;;18.70;85.57;99605.94;5033348;28;1922;-58
2022/06/01 00:49:55;;;;;;;;;;;;;;;18.54;86.40;99609.78;5033493;28;886;-58
2022/06/01 00:52:35;;;;;;;;;;;;;;;18.49;86.64;99610.38;5033261;28;910;-59
2022/06/01 00:55:22;;;;;;;;;;;;;;;18.38;87.02;99610.03;5033215;28;863;-58
2022/06/01 00:57:52;;;;;;;;;;;;;;;18.26;87.41;99609.66;5033380;28;886;-58
2022/06/01 01:00:20;;;;;;;;;;;;;;;18.17;87.74;99609.66;5033024;28;965;-58
2022/06/01 01:02:50;;;;;;;;;;;;;;;18.08;88.13;99606.81;5033244;28;870;-59
2022/06/01 01:05:17;;;;;;;;;;;;;;;17.99;88.80;99606.75;5033139;28;803;-58
2022/06/01 01:07:45;;;;;;;;;;;;;;;17.94;89.09;99611.72;5032959;28;1985;-58
2022/06/01 01:10:13;;;;;;;;;;;;;;;17.87;89.45;99611.22;5032983;28;867;-58
2022/06/01 01:15:40;;;;;;;;;;;;;;;17.63;90.18;99614.44;5014974;28;1206;-58
2022/06/01 01:18:11;;;;;;;;;;;;;;;18.05;90.79;99608.53;5033132;28;877;-58
2022/06/01 01:20:48;;;;;;;;;;;;;;;18.51;88.03;99619.88;5032834;28;795;-58
2022/06/01 01:23:21;;;;;;;;;;;;;;;18.43;87.49;99617.81;5032835;28;878;-58
2022/06/01 01:25:48;;;;;;;;;;;;;;;18.28;87.77;99623.97;5032613;28;1952;-58
2022/06/01 01:28:15;;;;;;;;;;;;;;;18.14;87.89;99616.94;5032758;28;1264;-59
2022/06/01 01:30:44;;;;;;;;;;;;;;;18.00;88.20;99614.69;5032804;28;802;-59
2022/06/01 01:33:13;;;;;;;;;;;;;;;17.82;88.62;99617.38;5032572;28;967;-58
2022/06/01 01:35:41;;;;;;;;;;;;;;;17.61;89.24;99619.72;5032510;28;894;-58
2022/06/01 01:38:15;;;;;;;;;;;;;;;17.48;89.71;99610.63;5032475;28;909;-58
2022/06/01 01:40:42;;;;;;;;;;;;;;;17.35;90.26;99619.84;5032454;28;834;-58
2022/06/01 01:43:09;;;;;;;;;;;;;;;17.27;90.50;99615.72;5032383;28;913;-58
2022/06/01 01:45:36;;;;;;;;;;;;;;;17.20;91.02;99609.59;5032498;28;1977;-59
2022/06/01 01:48:03;;;;;;;;;;;;;;;17.09;91.59;99616.38;5032695;28;787;-58
2022/06/01 01:50:30;;;;;;;;;;;;;;;17.03;91.89;99609.03;5032249;28;779;-58
2022/06/01 01:52:57;;;;;;;;;;;;;;;17.05;92.07;99612.91;5032181;28;898;-58
2022/06/01 01:55:30;;;;;;;;;;;;;;;17.00;92.24;99610.69;5032400;28;917;-58
2022/06/01 01:58:11;;;;;;;;;;;;;;;16.96;92.25;99604.44;5032867;28;743;-58
2022/06/01 02:00:41;;;;;;;;;;;;;;;16.88;92.56;99603.91;5014531;28;815;-58
2022/06/01 02:03:07;;;;;;;;;;;;;;;16.82;92.55;99604.94;5032074;28;858;-58
2022/06/01 02:08:30;;;;;;;;;;;;;;;16.68;93.27;99611.72;5032311;28;688;-58
2022/06/01 02:14:28;;;;;;;;;;;;;;;16.49;93.60;99617.13;4951818;29;1831;-58
2022/06/01 02:16:59;;;;;;;;;;;;;;;16.39;94.01;99618.25;4951731;29;988;-58
2022/06/01 02:19:30;;;;;;;;;;;;;;;16.29;94.51;99617.34;4951792;29;847;-58
2022/06/01 02:21:59;;;;;;;;;;;;;;;16.29;95.10;99611.75;4951690;29;903;-58
2022/06/01 02:24:26;;;;;;;;;;;;;;;16.35;95.36;99611.22;4951576;29;922;-58
2022/06/01 02:26:53;;;;;;;;;;;;;;;16.34;95.29;99610.41;4951491;29;1883;-59
2022/06/01 02:29:25;;;;;;;;;;;;;;;16.32;95.45;99610.88;4950969;28;1336;-58
2022/06/01 02:31:52;;;;;;;;;;;;;;;16.39;95.95;99609.88;4951620;29;906;-58
2022/06/01 02:34:21;;;;;;;;;;;;;;;16.46;95.75;99615.22;4951516;29;1030;-58
2022/06/01 02:36:50;;;;;;;;;;;;;;;16.53;95.76;99608.63;4951797;29;780;-58
2022/06/01 02:39:17;;;;;;;;;;;;;;;16.58;95.76;99610.88;4951645;29;867;-58
2022/06/01 02:44:28;;;;;;;;;;;;;;;16.85;95.26;99609.59;4951495;29;673;-58
2022/06/01 02:46:53;;;;;;;;;;;;;;;16.89;95.24;99613.84;4954666;28;1974;-58
2022/06/01 02:49:20;;;;;;;;;;;;;;;17.00;94.86;99609.91;4992093;28;887;-58
2022/06/01 02:51:47;;;;;;;;;;;;;;;17.01;94.74;99609.47;4992112;28;790;-58
2022/06/01 02:54:13;;;;;;;;;;;;;;;16.99;94.35;99597.19;4992152;28;815;-58
2022/06/01 02:56:40;;;;;;;;;;;;;;;16.94;94.24;99604.91;4992084;28;858;-58
2022/06/01 02:59:07;;;;;;;;;;;;;;;16.88;94.39;99600.34;4992119;28;886;-58
2022/06/01 03:01:36;;;;;;;;;;;;;;;16.85;94.46;99604.81;4991953;28;890;-59
2022/06/01 03:04:03;;;;;;;;;;;;;;;16.82;94.40;99604.94;4992032;28;923;-58
2022/06/01 03:06:30;;;;;;;;;;;;;;;16.79;94.49;99617.75;4991886;28;1898;-58
2022/06/01 03:08:57;;;;;;;;;;;;;;;16.79;94.42;99619.75;4991963;28;910;-58
2022/06/01 03:11:24;;;;;;;;;;;;;;;16.76;94.26;99603.91;4991939;28;885;-58
2022/06/01 03:13:50;;;;;;;;;;;;;;;16.69;94.25;99604.94;4991892;28;825;-58
2022/06/01 03:16:17;;;;;;;;;;;;;;;16.61;94.23;99606.41;4992007;28;827;-58
2022/06/01 03:18:44;;;;;;;;;;;;;;;16.56;94.53;99610.53;4991956;28;894;-58
2022/06/01 03:21:11;;;;;;;;;;;;;;;16.61;94.80;99611.97;4991983;28;865;-58
2022/06/01 03:23:38;;;;;;;;;;;;;;;16.65;94.59;99613.41;4991804;28;869;-58
2022/06/01 03:26:05;;;;;;;;;;;;;;;16.71;94.62;99619.22;4991791;28;1886;-58
2022/06/01 03:28:32;;;;;;;;;;;;;;;16.79;94.42;99622.53;4996440;28;1193;-58
2022/06/01 03:30:58;;;;;;;;;;;;;;;16.86;94.32;99620.34;5031141;28;818;-58
2022/06/01 03:33:25;;;;;;;;;;;;;;;16.93;94.03;99627.69;5031017;28;981;-58
2022/06/01 03:35:52;;;;;;;;;;;;;;;17.01;93.66;99623.41;5031020;28;947;-58
2022/06/01 03:38:19;;;;;;;;;;;;;;;17.10;93.83;99634.66;5031038;28;934;-58
2022/06/01 03:52:57;;;;;;;;;;;;;;;17.93;90.68;99634.53;5034890;28;633;-58
2022/06/01 03:55:24;;;;;;;;;;;;;;;17.99;90.62;99627.13;5034639;28;819;-58
2022/06/01 03:57:51;;;;;;;;;;;;;;;18.05;90.34;99632.88;5034697;28;830;-58
2022/06/01 04:00:22;;;;;;;;;;;;;;;18.11;89.93;99628.25;5034411;28;869;-58
2022/06/01 04:02:49;;;;;;;;;;;;;;;18.17;89.59;99637.63;5034360;28;817;-58
2022/06/01 04:05:16;;;;;;;;;;;;;;;18.27;89.32;99639.22;5034265;28;816;-58
2022/06/01 04:07:43;;;;;;;;;;;;;;;18.39;88.92;99637.53;5034141;28;1965;-58
2022/06/01 04:10:10;;;;;;;;;;;;;;;18.55;88.41;99636.53;5034051;28;799;-58
2022/06/01 04:12:37;;;;;;;;;;;;;;;18.71;87.85;99632.69;5034223;28;815;-58
2022/06/01 04:15:05;;;;;;;;;;;;;;;18.83;87.22;99634.59;5034362;28;938;-59
2022/06/01 04:17:31;;;;;;;;;;;;;;;18.93;86.70;99636.19;5033967;28;1120;-58
2022/06/01 04:19:57;;;;;;;;;;;;;;;19.08;86.27;99633.56;5034185;28;795;-58
2022/06/01 04:22:24;;;;;;;;;;;;;;;19.25;85.58;99633.28;5033998;28;799;-58
2022/06/01 04:24:51;;;;;;;;;;;;;;;19.42;85.25;99633.75;5033923;28;823;-58
2022/06/01 04:27:18;;;;;;;;;;;;;;;19.63;84.54;99643.19;5034026;28;1914;-58
2022/06/01 04:29:44;;;;;;;;;;;;;;;19.81;83.93;99642.44;5033504;28;1218;-58
2022/06/01 04:32:17;;;;;;;;;;;;;;;19.97;83.08;99647.69;5033761;28;965;-58
2022/06/01 04:34:43;;;;;;;;;;;;;;;20.09;82.35;99635.50;5033747;28;901;-58
2022/06/01 04:37:10;;;;;;;;;;;;;;;20.18;81.94;99637.50;5033974;28;854;-58
2022/06/01 04:39:36;;;;;;;;;;;;;;;20.29;81.85;99637.81;5033521;28;803;-58
2022/06/01 04:42:03;;;;;;;;;;;;;;;20.46;81.15;99646.63;5033679;28;827;-58
2022/06/01 04:44:30;;;;;;;;;;;;;;;20.60;80.47;99637.50;5033676;28;811;-58
2022/06/01 04:46:56;;;;;;;;;;;;;;;20.81;79.65;99629.28;5033529;28;1950;-58
2022/06/01 04:49:22;;;;;;;;;;;;;;;21.11;78.64;99644.22;5033525;28;851;-58
2022/06/01 04:51:49;;;;;;;;;;;;;;;21.48;77.15;99641.16;5033202;28;949;-58
2022/06/01 04:54:16;;;;;;;;;;;;;;;21.95;74.34;99639.44;5033413;28;952;-58
2022/06/01 04:56:42;;;;;;;;;;;;;;;22.35;72.73;99640.91;5033333;28;894;-58
2022/06/01 04:59:10;;;;;;;;;;;;;;;22.61;69.56;99641.03;5033358;28;901;-58
2022/06/01 05:01:36;;;;;;;;;;;;;;;22.79;68.82;99651.28;5015467;28;878;-58
2022/06/01 05:04:03;;;;;;;;;;;;;;;22.94;67.83;99653.28;5033471;28;791;-58
2022/06/01 05:06:29;;;;;;;;;;;;;;;23.13;68.16;99653.78;5033158;28;1947;-58
2022/06/01 05:08:56;;;;;;;;;;;;;;;23.35;67.45;99656.13;5033041;28;901;-58
2022/06/01 05:11:22;;;;;;;;;;;;;;;23.59;67.06;99661.53;5033095;28;806;-59
2022/06/01 05:13:49;;;;;;;;;;;;;;;23.77;66.00;99666.09;5033254;28;854;-58
2022/06/01 05:16:16;;;;;;;;;;;;;;;23.92;64.93;99666.78;5032998;28;810;-59
2022/06/01 05:18:42;;;;;;;;;;;;;;;24.13;63.77;99666.69;5033238;28;799;-58
2022/06/01 05:21:10;;;;;;;;;;;;;;;24.32;62.72;99665.06;5032922;28;822;-58
2022/06/01 05:23:37;;;;;;;;;;;;;;;24.48;61.23;99677.78;5032830;28;810;-58
2022/06/01 05:26:04;;;;;;;;;;;;;;;24.66;60.24;99670.97;5032757;28;1952;-59
2022/06/01 05:28:32;;;;;;;;;;;;;;;24.93;59.00;99671.66;5032797;28;1360;-58
2022/06/01 05:31:04;;;;;;;;;;;;;;;25.17;58.47;99674.88;5032730;28;810;-59
2022/06/01 05:33:32;;;;;;;;;;;;;;;25.41;56.83;99663.19;5032706;28;815;-59
2022/06/01 05:35:59;;;;;;;;;;;;;;;25.64;57.05;99675.31;5032598;28;866;-59
2022/06/01 05:38:25;;;;;;;;;;;;;;;26.02;55.65;99666.69;5032580;28;862;-59
2022/06/01 05:40:52;;;;;;;;;;;;;;;26.43;55.50;99674.66;5032476;28;839;-58
2022/06/01 05:43:20;;;;;;;;;;;;;;;26.87;53.67;99664.56;5032647;28;909;-59
2022/06/01 05:45:46;;;;;;;;;;;;;;;27.47;52.23;99664.88;5032668;28;1918;-59
2022/06/01 05:48:14;;;;;;;;;;;;;;;28.07;50.12;99666.34;5032362;28;898;-59
2022/06/01 05:50:42;;;;;;;;;;;;;;;28.44;48.90;99667.84;5032304;28;882;-59
2022/06/01 05:53:08;;;;;;;;;;;;;;;28.63;48.63;99663.03;5032328;28;806;-58
2022/06/01 05:55:35;;;;;;;;;;;;;;;28.99;47.21;99671.44;5032283;28;894;-59
2022/06/01 05:58:18;;;;;;;;;;;;;;;29.35;46.20;99673.38;5032096;28;835;-58
2022/06/01 06:00:47;;;;;;;;;;;;;;;29.64;45.53;99666.78;5032183;28;819;-59
2022/06/01 06:03:14;;;;;;;;;;;;;;;29.61;45.05;99672.78;5031772;28;838;-59
2022/06/01 06:08:26;;;;;;;;;;;;;;;30.32;44.65;99677.16;5031951;28;696;-59
2022/06/01 06:10:53;;;;;;;;;;;;;;;30.13;43.15;99677.22;5014468;28;835;-59
2022/06/01 06:13:20;;;;;;;;;;;;;;;30.17;44.08;99674.03;5031934;28;846;-58
2022/06/01 06:15:47;;;;;;;;;;;;;;;30.59;43.48;99668.69;5031892;28;834;-59
2022/06/01 06:18:15;;;;;;;;;;;;;;;30.79;43.15;99667.28;5031857;28;811;-59
2022/06/01 06:20:42;;;;;;;;;;;;;;;30.79;41.68;99665.22;5031744;28;1079;-58
2022/06/01 06:23:09;;;;;;;;;;;;;;;30.62;42.23;99676.94;5031726;28;942;-59
2022/06/01 06:25:35;;;;;;;;;;;;;;;30.71;43.00;99672.88;5031662;28;922;-58
2022/06/01 06:28:03;;;;;;;;;;;;;;;30.71;42.33;99676.50;5031945;28;1940;-59
2022/06/01 06:30:29;;;;;;;;;;;;;;;30.68;41.97;99666.19;5031550;28;1319;-59
2022/06/01 06:32:56;;;;;;;;;;;;;;;30.66;42.39;99680.22;5031611;28;792;-58
2022/06/01 06:38:39;;;;;;;;;;;;;;;29.89;44.22;99686.63;5031574;28;700;-59
2022/06/01 06:41:06;;;;;;;;;;;;;;;30.20;43.50;99682.28;5031584;28;878;-58
2022/06/01 06:43:34;;;;;;;;;;;;;;;30.19;42.87;99672.16;5031866;28;823;-58
2022/06/01 06:46:03;;;;;;;;;;;;;;;30.71;43.09;99667.94;5014019;28;2355;-58
2022/06/01 06:48:29;;;;;;;;;;;;;;;31.10;42.10;99675.00;5013637;28;1425;-59
2022/06/01 06:50:57;;;;;;;;;;;;;;;31.01;41.20;99677.53;5013914;28;885;-60
2022/06/01 06:53:23;;;;;;;;;;;;;;;30.98;41.57;99673.66;5031376;28;890;-58
2022/06/01 06:55:50;;;;;;;;;;;;;;;31.25;42.04;99673.66;5031889;28;819;-58
2022/06/01 06:58:17;;;;;;;;;;;;;;;31.76;40.77;99679.06;5031596;28;878;-58
2022/06/01 07:00:44;;;;;;;;;;;;;;;31.77;40.03;99677.75;5031994;28;878;-60
2022/06/01 07:03:11;;;;;;;;;;;;;;;31.54;40.36;99677.50;5013784;28;1339;-59
2022/06/01 07:08:25;;;;;;;;;;;;;;;31.92;40.32;99668.56;5031584;28;696;-59
2022/06/01 07:10:52;;;;;;;;;;;;;;;31.85;40.52;99678.59;5031621;28;882;-59
2022/06/01 07:13:19;;;;;;;;;;;;;;;32.02;40.08;99677.47;5013822;28;2420;-58
2022/06/01 07:15:45;;;;;;;;;;;;;;;32.20;39.83;99673.66;5033507;28;787;-62
2022/06/01 07:18:13;;;;;;;;;;;;;;;31.96;39.38;99671.84;5035921;28;819;-58
2022/06/01 07:20:39;;;;;;;;;;;;;;;31.99;39.96;99670.03;5035389;28;865;-58
2022/06/01 07:23:06;;;;;;;;;;;;;;;32.06;39.60;99672.19;5035834;28;795;-58
2022/06/01 07:25:33;;;;;;;;;;;;;;;32.06;40.25;99667.22;5035409;28;815;-58
2022/06/01 07:27:59;;;;;;;;;;;;;;;32.41;40.58;99672.88;5035495;28;1894;-59
2022/06/01 07:30:26;;;;;;;;;;;;;;;32.93;39.10;99671.75;5034718;28;1221;-59
2022/06/01 07:32:52;;;;;;;;;;;;;;;33.34;38.86;99678.66;5034849;28;863;-58
2022/06/01 07:35:19;;;;;;;;;;;;;;;33.76;37.54;99674.84;5034884;28;921;-59
2022/06/01 07:49:56;;;;;;;;;;;;;;;33.58;37.56;99673.81;5034960;28;695;-58
2022/06/01 07:52:23;;;;;;;;;;;;;;;33.21;37.95;99675.19;5034592;28;838;-58
2022/06/01 07:54:54;;;;;;;;;;;;;;;33.33;38.28;99674.28;5034554;28;806;-58
2022/06/01 07:57:21;;;;;;;;;;;;;;;33.34;38.86;99672.94;5034481;28;866;-58
2022/06/01 07:59:47;;;;;;;;;;;;;;;33.15;38.12;99667.50;5034418;28;870;-58
2022/06/01 08:02:14;;;;;;;;;;;;;;;33.09;39.07;99684.06;5034393;28;866;-58
2022/06/01 08:04:41;;;;;;;;;;;;;;;33.41;38.74;99688.63;5034317;28;876;-58
2022/06/01 08:07:07;;;;;;;;;;;;;;;34.30;38.70;99678.59;5034423;28;1890;-58
2022/06/01 08:09:34;;;;;;;;;;;;;;;34.10;37.17;99682.38;5034232;28;878;-59
2022/06/01 08:14:46;;;;;;;;;;;;;;;34.12;37.43;99689.09;5034434;28;630;-59
2022/06/01 08:17:13;;;;;;;;;;;;;;;33.62;36.63;99679.97;5034122;28;850;-59
2022/06/01 08:19:41;;;;;;;;;;;;;;;33.59;37.42;99680.31;5034027;28;893;-59
2022/06/01 08:22:08;;;;;;;;;;;;;;;34.35;36.60;99688.34;5034119;28;866;-59
2022/06/01 08:24:34;;;;;;;;;;;;;;;34.85;35.76;99690.84;5033976;28;886;-59
2022/06/01 08:27:01;;;;;;;;;;;;;;;34.90;35.54;99690.63;5033083;28;1886;-59
2022/06/01 08:29:28;;;;;;;;;;;;;;;35.02;35.39;99691.00;5033793;28;1420;-58
2022/06/01 08:31:55;;;;;;;;;;;;;;;34.47;34.99;99689.50;5033849;28;869;-58
2022/06/01 08:34:21;;;;;;;;;;;;;;;33.02;38.72;99699.09;5033837;28;866;-58
2022/06/01 08:36:48;;;;;;;;;;;;;;;33.27;37.30;99704.44;5033581;28;914;-59
2022/06/01 08:39:14;;;;;;;;;;;;;;;33.97;36.83;99697.66;5033629;28;925;-59
2022/06/01 08:41:41;;;;;;;;;;;;;;;34.13;35.68;99704.19;5033645;28;815;-59
2022/06/01 08:44:15;;;;;;;;;;;;;;;34.45;37.00;99709.38;5033556;28;919;-59
2022/06/01 08:46:42;;;;;;;;;;;;;;;34.70;35.58;99712.47;5033392;28;1988;-59
2022/06/01 08:49:12;;;;;;;;;;;;;;;34.82;34.72;99715.72;5033503;28;834;-58
2022/06/01 08:51:38;;;;;;;;;;;;;;;34.47;34.87;99717.44;5033858;28;847;-59
2022/06/01 08:54:05;;;;;;;;;;;;;;;34.77;35.21;99714.56;5033333;28;1001;-58
2022/06/01 08:56:31;;;;;;;;;;;;;;;34.40;35.13;99715.31;5033458;28;877;-59
2022/06/01 08:59:13;;;;;;;;;;;;;;;34.10;35.81;99711.81;5033358;28;811;-58
2022/06/01 09:01:44;;;;;;;;;;;;;;;34.60;36.59;99707.88;5033339;28;791;-58
2022/06/01 09:04:22;;;;;;;;;;;;;;;35.03;35.56;99706.13;5033168;28;1041;-58
2022/06/01 09:07:15;;;;;;;;;;;;;;;35.11;34.91;99696.13;5032948;28;1894;-59
2022/06/01 09:09:44;;;;;;;;;;;;;;;34.36;35.51;99709.97;5002738;28;1293;-59
2022/06/01 09:12:12;;;;;;;;;;;;;;;34.27;35.75;99707.66;5033296;28;879;-59
2022/06/01 09:14:41;;;;;;;;;;;;;;;34.71;36.37;99711.13;5032936;28;886;-59
2022/06/01 09:17:08;;;;;;;;;;;;;;;34.67;34.84;99704.25;5032990;28;857;-59
2022/06/01 09:22:38;;;;;;;;;;;;;;;34.64;35.83;99705.41;5033213;28;629;-58
2022/06/01 09:25:07;;;;;;;;;;;;;;;34.97;34.41;99712.06;5014942;28;2712;-58
2022/06/01 09:27:38;;;;;;;;;;;;;;;34.21;35.27;99707.84;5032763;28;1957;-58
2022/06/01 09:30:26;;;;;;;;;;;;;;;33.59;35.00;99704.00;5032430;28;1266;-59
2022/06/01 09:33:02;;;;;;;;;;;;;;;33.65;36.83;99703.84;5032637;28;835;-59
2022/06/01 09:35:29;;;;;;;;;;;;;;;33.85;35.71;99691.50;5032398;28;923;-58
2022/06/01 09:37:56;;;;;;;;;;;;;;;33.31;37.58;99688.41;5032383;28;803;-58
2022/06/01 09:40:25;;;;;;;;;;;;;;;33.49;36.68;99697.25;5031842;28;827;-59
2022/06/01 09:42:53;;;;;;;;;;;;;;;32.97;36.46;99685.72;5032396;28;969;-59
2022/06/01 09:45:25;;;;;;;;;;;;;;;32.66;37.38;99684.72;5032632;28;910;-59
2022/06/01 09:47:53;;;;;;;;;;;;;;;32.57;38.07;99686.00;5032227;28;1918;-59
2022/06/01 09:50:24;;;;;;;;;;;;;;;32.72;38.93;99682.47;5032340;28;867;-59
2022/06/01 09:52:55;;;;;;;;;;;;;;;32.64;38.32;99681.66;5032245;28;822;-59
2022/06/01 09:55:23;;;;;;;;;;;;;;;32.49;38.61;99683.03;5032911;28;847;-59
2022/06/01 09:58:00;;;;;;;;;;;;;;;32.35;39.17;99679.50;5032200;28;879;-59
2022/06/01 10:28:56;;;;;;;;;;;;;;;32.69;36.95;99667.22;5566208;22;1698;-59
2022/06/01 10:31:50;;;;;;;;;;;;;;;32.69;37.32;99666.44;5031756;28;802;-59
2022/06/01 10:34:16;;;;;;;;;;;;;;;32.60;37.58;99659.13;5028560;28;1263;-59
2022/06/01 10:36:54;;;;;;;;;;;;;;;32.80;37.91;99671.09;5031711;28;864;-59
2022/06/01 10:39:23;;;;;;;;;;;;;;;32.74;37.50;99672.00;5031576;28;882;-59
2022/06/01 10:42:03;;;;;;;;;;;;;;;32.76;37.55;99662.88;5031620;28;838;-59
2022/06/01 10:44:33;;;;;;;;;;;;;;;32.75;37.64;99670.69;5031586;28;807;-59
2022/06/01 10:47:15;;;;;;;;;;;;;;;33.08;37.34;99658.91;5031667;28;1906;-59
2022/06/01 10:49:57;;;;;;;;;;;;;;;33.58;36.95;99661.59;5031135;28;889;-58
2022/06/01 10:52:43;;;;;;;;;;;;;;;33.64;35.79;99656.47;5031487;28;826;-59
2022/06/01 10:55:16;;;;;;;;;;;;;;;32.21;36.82;99652.31;5013745;28;885;-59
2022/06/01 10:57:44;;;;;;;;;;;;;;;31.22;38.50;99666.97;5031439;28;874;-59
2022/06/01 11:00:14;;;;;;;;;;;;;;;30.87;38.36;99660.41;5031447;28;803;-59
2022/06/01 11:02:51;;;;;;;;;;;;;;;31.64;36.87;99660.66;5031270;28;949;-58
2022/06/01 11:05:23;;;;;;;;;;;;;;;32.46;35.35;99660.53;5031566;28;826;-58
2022/06/01 11:07:53;;;;;;;;;;;;;;;33.28;34.58;99651.53;5031451;28;1890;-59
2022/06/01 11:10:24;;;;;;;;;;;;;;;33.85;33.99;99642.78;5031264;28;915;-59
2022/06/01 11:13:05;;;;;;;;;;;;;;;34.48;33.62;99652.97;5031349;28;869;-59
2022/06/01 11:15:48;;;;;;;;;;;;;;;34.71;34.00;99647.22;5031453;28;922;-59
2022/06/01 11:18:18;;;;;;;;;;;;;;;34.62;33.13;99642.81;5031336;28;870;-59
2022/06/01 11:21:00;;;;;;;;;;;;;;;34.82;32.65;99635.34;5031219;28;878;-59
2022/06/01 11:23:46;;;;;;;;;;;;;;;35.03;32.47;99637.97;5031349;28;862;-59
2022/06/01 11:26:15;;;;;;;;;;;;;;;35.47;31.34;99628.25;5031320;28;1953;-59
2022/06/01 11:29:07;;;;;;;;;;;;;;;36.04;30.91;99623.88;5031031;28;1369;-59
2022/06/01 11:31:35;;;;;;;;;;;;;;;36.17;30.89;99627.25;5031364;28;936;-59
2022/06/01 11:34:12;;;;;;;;;;;;;;;35.80;30.91;99620.41;5013547;28;866;-59
2022/06/01 11:36:39;;;;;;;;;;;;;;;35.53;30.92;99623.81;5031069;28;953;-59
2022/06/01 11:39:12;;;;;;;;;;;;;;;35.64;30.83;99622.63;5031126;28;794;-58
2022/06/01 11:41:41;;;;;;;;;;;;;;;36.07;30.73;99614.84;5031266;28;855;-60
2022/06/01 11:44:19;;;;;;;;;;;;;;;36.44;29.08;99612.25;5030957;28;854;-58
2022/06/01 11:47:04;;;;;;;;;;;;;;;36.55;29.60;99600.25;5031204;28;1985;-59
2022/06/01 11:49:34;;;;;;;;;;;;;;;36.97;29.45;99599.41;5030925;28;931;-59
2022/06/01 11:52:24;;;;;;;;;;;;;;;37.46;28.65;99599.78;5031553;28;763;-59
2022/06/01 11:55:14;;;;;;;;;;;;;;;37.47;28.48;99580.38;5020670;28;1235;-59
2022/06/01 11:57:51;;;;;;;;;;;;;;;37.74;28.59;99584.03;5020388;28;1773;-59
2022/06/01 12:00:21;;;;;;;;;;;;;;;38.03;28.69;99599.94;5030895;28;826;-60
2022/06/01 12:02:50;;;;;;;;;;;;;;;36.48;30.75;99598.19;5032623;28;876;-58
2022/06/01 12:05:39;;;;;;;;;;;;;;;34.50;35.01;99598.63;5034524;28;875;-59
2022/06/01 12:08:21;;;;;;;;;;;;;;;32.71;39.29;99604.47;5034300;28;1955;-59
2022/06/01 12:10:56;;;;;;;;;;;;;;;31.48;41.42;99596.88;5034224;28;893;-58
2022/06/01 12:13:26;;;;;;;;;;;;;;;31.02;42.91;99610.56;5034109;28;878;-59
2022/06/01 12:16:07;;;;;;;;;;;;;;;31.42;43.28;99619.81;5034186;28;877;-58
2022/06/01 12:18:35;;;;;;;;;;;;;;;33.37;40.54;99630.94;5034489;28;877;-58
2022/06/01 12:21:19;;;;;;;;;;;;;;;32.64;40.34;99635.88;5034049;28;923;-58
2022/06/01 12:29:56;;;;;;;;;;;;;;;30.35;44.87;99624.78;4953520;29;1414;-58
2022/06/01 12:32:23;;;;;;;;;;;;;;;32.87;41.57;99618.88;4953744;29;855;-58
2022/06/01 12:34:52;;;;;;;;;;;;;;;35.11;38.29;99626.47;4953578;29;1002;-59
2022/06/01 12:37:24;;;;;;;;;;;;;;;36.57;35.02;99625.53;4953627;29;916;-58
2022/06/01 12:39:59;;;;;;;;;;;;;;;37.34;34.34;99619.75;4953860;29;886;-59
2022/06/01 12:42:38;;;;;;;;;;;;;;;37.87;32.90;99611.69;4953472;29;1043;-59
2022/06/01 12:45:11;;;;;;;;;;;;;;;37.51;32.96;99610.31;4953563;29;866;-59
2022/06/01 12:47:42;;;;;;;;;;;;;;;36.30;33.61;99597.44;4953399;29;1975;-59
2022/06/01 12:50:11;;;;;;;;;;;;;;;35.28;35.64;99595.00;4953399;29;906;-58
2022/06/01 12:52:38;;;;;;;;;;;;;;;35.41;35.64;99598.97;4953316;29;870;-58
2022/06/01 12:55:09;;;;;;;;;;;;;;;35.29;35.40;99605.16;4953305;29;1044;-58
2022/06/01 12:57:41;;;;;;;;;;;;;;;34.74;36.45;99611.66;4937100;29;2244;-58
2022/06/01 13:00:19;;;;;;;;;;;;;;;33.17;38.37;99618.28;4953156;29;933;-59
2022/06/01 13:02:46;;;;;;;;;;;;;;;31.68;40.56;99623.94;4980701;28;971;-58
2022/06/01 13:05:18;;;;;;;;;;;;;;;31.20;42.20;99626.78;4993845;28;890;-57
2022/06/01 13:07:46;;;;;;;;;;;;;;;31.07;42.71;99633.28;4993804;28;1953;-58
2022/06/01 13:10:17;;;;;;;;;;;;;;;30.91;42.45;99629.44;4993820;28;914;-58
2022/06/01 13:12:44;;;;;;;;;;;;;;;30.57;43.78;99620.75;4993570;28;882;-58
2022/06/01 13:15:21;;;;;;;;;;;;;;;30.51;43.86;99625.78;4993730;28;850;-58
2022/06/01 13:17:50;;;;;;;;;;;;;;;30.52;44.42;99619.53;4993766;28;873;-58
2022/06/01 13:20:20;;;;;;;;;;;;;;;30.50;44.62;99619.31;4993794;28;874;-58
2022/06/01 13:22:50;;;;;;;;;;;;;;;30.66;44.53;99614.63;4993615;28;1028;-59
2022/06/01 13:25:23;;;;;;;;;;;;;;;30.50;44.67;99613.63;4993388;28;921;-58
2022/06/01 13:27:51;;;;;;;;;;;;;;;30.57;44.98;99600.78;4993840;28;1886;-58
2022/06/01 13:30:18;;;;;;;;;;;;;;;30.98;43.92;99590.16;5025459;28;1306;-59
2022/06/01 13:32:46;;;;;;;;;;;;;;;31.13;43.61;99588.28;5033044;28;909;-58
2022/06/01 13:35:31;;;;;;;;;;;;;;;31.24;43.98;99592.19;5032698;28;822;-58
2022/06/01 13:37:59;;;;;;;;;;;;;;;31.19;44.24;99591.00;5033100;28;807;-59
2022/06/01 13:40:25;;;;;;;;;;;;;;;31.02;43.93;99577.09;5033384;28;768;-58
2022/06/01 13:43:00;;;;;;;;;;;;;;;30.70;44.16;99574.34;5032856;28;831;-58
2022/06/01 13:45:35;;;;;;;;;;;;;;;30.17;44.92;99575.06;5032615;28;815;-57
2022/06/01 13:48:04;;;;;;;;;;;;;;;29.46;46.54;99584.97;5032276;28;1903;-59
2022/06/01 13:50:37;;;;;;;;;;;;;;;28.81;47.62;99607.53;5032423;28;897;-57
2022/06/01 13:53:27;;;;;;;;;;;;;;;28.22;49.09;99617.66;5032369;28;806;-58
2022/06/01 13:56:03;;;;;;;;;;;;;;;27.66;50.18;99633.81;5021903;28;1716;-58
2022/06/01 13:58:31;;;;;;;;;;;;;;;26.97;54.31;99650.88;5032207;28;942;-58
2022/06/01 14:01:21;;;;;;;;;;;;;;;25.36;58.86;99627.16;5032263;28;827;-61
2022/06/01 14:03:55;;;;;;;;;;;;;;;22.59;73.82;99645.63;5031312;28;1273;-67
2022/06/01 14:06:41;;;;;;;;;;;;;;;20.51;84.92;99676.84;5032087;28;1975;-62
2022/06/01 14:09:12;;;;;;;;;;;;;;;19.51;94.88;99727.00;5032257;28;799;-69
2022/06/01 14:11:41;;;;;;;;;;;;;;;19.08;97.79;99770.03;5014265;28;1281;-72
2022/06/01 14:14:13;;;;;;;;;;;;;;;18.93;100.00;99790.22;5031980;28;870;-63
2022/06/01 14:16:46;;;;;;;;;;;;;;;18.67;100.00;99781.19;5014041;28;969;-67
2022/06/01 14:19:12;;;;;;;;;;;;;;;18.74;100.00;99752.91;5031932;28;813;-70
2022/06/01 14:22:07;;;;;;;;;;;;;;;18.69;100.00;99742.34;5031874;28;893;-74
2022/06/01 14:30:05;;;;;;;;;;;;;;;18.35;100.00;99735.63;4951606;29;1304;-68
2022/06/01 14:32:32;;;;;;;;;;;;;;;18.35;100.00;99716.03;4951759;29;847;-66
2022/06/01 14:34:59;;;;;;;;;;;;;;;18.38;100.00;99708.75;4951510;29;1354;-65
2022/06/01 14:37:26;;;;;;;;;;;;;;;18.46;100.00;99704.44;4951540;29;839;-65
2022/06/01 14:39:53;;;;;;;;;;;;;;;18.62;100.00;99699.84;4951627;29;862;-63
2022/06/01 14:42:19;;;;;;;;;;;;;;;18.68;100.00;99689.59;4951507;29;1047;-61
2022/06/01 14:44:47;;;;;;;;;;;;;;;18.72;100.00;99679.81;4951546;29;886;-61
2022/06/01 14:47:14;;;;;;;;;;;;;;;18.76;100.00;99674.06;4951404;29;1973;-61
2022/06/01 14:49:41;;;;;;;;;;;;;;;18.75;100.00;99675.31;4951488;29;938;-61